Time;durP1;ratioP1;P1;durP2;ratioP2;P2;SDS_P1;SDS_P2;PMS_P1;PMS_P2;Temp;Humidity;BMP_temperature;BMP_pressure;BME280_temperature;BME280_humidity;BME280_pressure;Samples;Min_cycle;Max_cycle;Signal;HPM_P1;HPM_P2
2022/07/02 00:01:11;;;;;;;13.40;4.75;;;19.90;99.90;;;;;;5009231;28;20411;-84
2022/07/02 00:03:43;;;;;;;10.50;5.55;;;19.90;99.90;;;;;;4993403;28;20862;-83
2022/07/02 00:06:14;;;;;;;10.43;5.45;;;19.90;99.90;;;;;;5009046;28;20403;-83
2022/07/02 00:08:42;;;;;;;9.73;5.68;;;19.70;99.90;;;;;;5005122;28;20750;-84
2022/07/02 00:11:16;;;;;;;7.95;5.53;;;19.60;99.90;;;;;;5001897;28;20415;-83
2022/07/02 00:13:44;;;;;;;10.20;5.50;;;19.60;99.90;;;;;;5006090;28;20422;-83
2022/07/02 00:16:12;;;;;;;7.87;5.67;;;19.60;99.90;;;;;;5005814;28;20410;-83
2022/07/02 00:18:40;;;;;;;12.25;6.57;;;19.60;99.90;;;;;;5000502;28;20737;-84
2022/07/02 00:21:08;;;;;;;10.07;5.70;;;19.60;99.90;;;;;;5011427;28;20392;-84
2022/07/02 00:23:36;;;;;;;9.88;6.60;;;19.60;99.90;;;;;;5005833;28;20491;-83
2022/07/02 00:26:14;;;;;;;10.73;5.73;;;19.50;99.90;;;;;;4993821;28;20418;-84
2022/07/02 00:28:45;;;;;;;12.52;5.97;;;19.50;99.90;;;;;;5006533;28;20400;-84
2022/07/02 00:31:14;;;;;;;9.73;6.07;;;19.40;99.90;;;;;;5006826;28;20437;-84
2022/07/02 00:33:45;;;;;;;13.43;6.28;;;19.50;99.90;;;;;;5007537;28;20407;-84
2022/07/02 00:36:21;;;;;;;8.77;6.00;;;19.50;99.90;;;;;;5009194;28;20841;-83
2022/07/02 00:38:50;;;;;;;7.70;6.10;;;19.30;99.90;;;;;;5012719;28;20807;-84
2022/07/02 00:41:18;;;;;;;12.15;6.30;;;19.30;99.90;;;;;;4991587;28;20480;-83
2022/07/02 00:43:47;;;;;;;9.60;6.40;;;19.30;99.90;;;;;;4996792;28;20929;-84
2022/07/02 00:46:15;;;;;;;11.95;6.43;;;19.30;99.90;;;;;;4978420;28;20420;-83
2022/07/02 00:48:43;;;;;;;8.25;5.78;;;19.30;99.90;;;;;;4975387;28;20455;-83
2022/07/02 00:51:11;;;;;;;11.05;6.95;;;19.20;99.90;;;;;;4997599;28;20475;-83
2022/07/02 00:53:39;;;;;;;12.63;6.85;;;19.20;99.90;;;;;;5005496;28;20489;-84
2022/07/02 00:56:06;;;;;;;11.50;7.43;;;19.20;99.90;;;;;;5010400;28;20399;-83
2022/07/02 00:58:35;;;;;;;9.77;7.28;;;19.10;99.90;;;;;;5004733;28;20415;-83
2022/07/02 01:01:03;;;;;;;9.52;6.97;;;19.10;99.90;;;;;;5007540;28;20512;-83
2022/07/02 01:03:34;;;;;;;10.55;7.03;;;19.10;99.90;;;;;;4996817;28;20409;-83
2022/07/02 01:06:02;;;;;;;11.07;7.43;;;19.00;99.90;;;;;;5007343;28;20470;-83
2022/07/02 01:11:19;;;;;;;13.13;8.02;;;19.00;99.90;;;;;;5005207;28;20413;-83
2022/07/02 01:13:46;;;;;;;12.10;7.57;;;18.90;99.90;;;;;;5007627;28;20411;-83
2022/07/02 01:16:14;;;;;;;10.82;7.50;;;18.90;99.90;;;;;;5009313;28;20465;-83
2022/07/02 01:18:41;;;;;;;13.55;8.23;;;18.90;99.90;;;;;;5001326;28;20396;-84
2022/07/02 01:21:09;;;;;;;10.48;7.35;;;18.90;99.90;;;;;;5003224;28;20492;-82
2022/07/02 01:23:37;;;;;;;8.60;7.07;;;18.90;99.90;;;;;;4997461;28;20412;-83
2022/07/02 01:26:06;;;;;;;10.50;7.50;;;18.90;99.90;;;;;;5000211;28;20832;-83
2022/07/02 01:28:33;;;;;;;11.00;8.02;;;18.80;99.90;;;;;;5000944;28;20401;-83
2022/07/02 01:31:01;;;;;;;11.43;7.80;;;18.80;99.90;;;;;;5008668;28;20913;-83
2022/07/02 01:33:28;;;;;;;13.75;8.07;;;18.80;99.90;;;;;;5002550;28;20878;-83
2022/07/02 01:35:56;;;;;;;12.40;8.05;;;18.80;99.90;;;;;;4994165;28;20403;-83
2022/07/02 01:38:24;;;;;;;10.10;7.30;;;18.70;99.90;;;;;;4994894;28;20401;-83
2022/07/02 01:41:38;;;;;;;10.35;7.18;;;18.80;99.90;;;;;;5003181;28;20803;-84
2022/07/02 01:43:39;;;;;;;11.35;7.00;;;18.80;99.90;;;;;;5008016;28;20411;-83
2022/07/02 01:46:07;;;;;;;10.27;7.57;;;18.80;99.90;;;;;;5008241;28;20468;-83
2022/07/02 01:48:36;;;;;;;12.15;8.10;;;18.80;99.90;;;;;;5000397;28;20412;-83
2022/07/02 01:51:03;;;;;;;11.73;8.30;;;18.80;99.90;;;;;;5001497;28;20430;-83
2022/07/02 01:53:31;;;;;;;13.43;8.13;;;18.80;99.90;;;;;;5000862;28;20409;-84
2022/07/02 01:55:58;;;;;;;10.60;8.02;;;18.70;99.90;;;;;;5001693;28;20409;-83
2022/07/02 01:58:26;;;;;;;11.07;7.93;;;18.70;99.90;;;;;;5002982;28;20877;-83
2022/07/02 02:00:54;;;;;;;12.50;7.83;;;18.70;99.90;;;;;;5000576;28;20389;-83
2022/07/02 02:03:21;;;;;;;12.73;8.70;;;18.60;99.90;;;;;;5000086;28;20505;-83
2022/07/02 02:05:53;;;;;;;11.63;8.13;;;18.60;99.90;;;;;;5000983;28;20398;-83
2022/07/02 02:08:20;;;;;;;12.98;8.13;;;18.50;99.90;;;;;;5006726;28;20493;-83
2022/07/02 02:10:48;;;;;;;11.85;7.57;;;18.50;99.90;;;;;;5000818;28;20822;-83
2022/07/02 02:13:16;;;;;;;11.63;8.25;;;18.50;99.90;;;;;;5008362;28;20476;-83
2022/07/02 02:15:43;;;;;;;10.82;7.90;;;18.50;99.90;;;;;;5002102;28;20769;-83
2022/07/02 02:18:11;;;;;;;11.13;7.97;;;18.50;99.90;;;;;;5006767;28;20570;-83
2022/07/02 02:20:38;;;;;;;12.10;8.10;;;18.40;99.90;;;;;;4999364;28;20408;-83
2022/07/02 02:23:07;;;;;;;12.80;7.57;;;18.50;99.90;;;;;;5007778;28;20404;-83
2022/07/02 02:25:34;;;;;;;10.52;7.30;;;18.40;99.90;;;;;;5006255;28;20499;-83
2022/07/02 02:28:03;;;;;;;13.33;8.10;;;18.40;99.90;;;;;;5006544;28;20444;-83
2022/07/02 02:30:31;;;;;;;10.98;7.47;;;18.40;99.90;;;;;;5001530;28;20411;-84
2022/07/02 02:32:59;;;;;;;13.90;8.20;;;18.40;99.90;;;;;;5000989;28;20428;-83
2022/07/02 02:35:26;;;;;;;11.80;8.18;;;18.50;99.90;;;;;;5006522;28;20393;-83
2022/07/02 02:37:54;;;;;;;10.80;7.97;;;18.40;99.90;;;;;;4992945;28;20483;-83
2022/07/02 02:40:21;;;;;;;11.35;8.05;;;18.40;99.90;;;;;;4991737;28;20403;-83
2022/07/02 02:42:49;;;;;;;10.85;7.72;;;18.40;99.90;;;;;;4996464;28;20937;-83
2022/07/02 02:45:16;;;;;;;13.10;8.10;;;18.50;99.90;;;;;;5006495;28;20791;-83
2022/07/02 02:47:44;;;;;;;9.15;7.78;;;18.50;99.90;;;;;;4996806;28;20411;-83
2022/07/02 02:50:12;;;;;;;10.18;7.60;;;18.50;99.90;;;;;;4997397;28;20439;-84
2022/07/02 02:52:39;;;;;;;11.55;7.25;;;18.50;99.90;;;;;;5004988;28;20454;-83
2022/07/02 02:55:07;;;;;;;11.65;7.55;;;18.50;99.90;;;;;;5001792;28;20500;-83
2022/07/02 02:57:35;;;;;;;11.63;8.05;;;18.50;99.90;;;;;;4998652;28;20828;-84
2022/07/02 03:00:03;;;;;;;9.38;7.55;;;18.50;99.90;;;;;;5008135;28;20813;-83
2022/07/02 03:02:31;;;;;;;11.35;8.32;;;18.50;99.90;;;;;;5004269;28;20418;-83
2022/07/02 03:04:59;;;;;;;10.88;7.85;;;18.50;99.90;;;;;;4999017;28;20749;-83
2022/07/02 03:07:27;;;;;;;7.60;6.50;;;18.60;99.90;;;;;;5005564;28;20403;-83
2022/07/02 03:09:54;;;;;;;9.32;6.88;;;18.60;99.90;;;;;;5009691;28;20412;-83
2022/07/02 03:12:24;;;;;;;12.38;8.05;;;18.60;99.90;;;;;;5005121;28;20424;-83
2022/07/02 03:14:51;;;;;;;13.60;7.20;;;18.60;99.90;;;;;;5003724;28;20400;-83
2022/07/02 03:17:19;;;;;;;10.93;7.50;;;18.60;99.90;;;;;;5000407;28;20495;-83
2022/07/02 03:19:46;;;;;;;13.18;7.68;;;18.70;99.90;;;;;;5007062;28;20408;-84
2022/07/02 03:22:14;;;;;;;11.98;8.00;;;18.70;99.90;;;;;;5010974;28;20514;-83
2022/07/02 03:24:42;;;;;;;10.50;7.05;;;18.60;99.90;;;;;;5009689;28;20487;-84
2022/07/02 03:27:10;;;;;;;9.88;7.40;;;18.70;99.90;;;;;;5007647;28;20438;-83
2022/07/02 03:29:37;;;;;;;11.63;7.43;;;18.80;99.90;;;;;;5002552;28;20784;-83
2022/07/02 03:32:05;;;;;;;10.13;7.75;;;18.70;99.90;;;;;;5002855;28;20404;-84
2022/07/02 03:34:33;;;;;;;9.70;7.80;;;18.70;99.90;;;;;;4999814;28;20411;-84
2022/07/02 03:37:01;;;;;;;10.13;6.70;;;18.60;99.90;;;;;;5009074;28;20396;-83
2022/07/02 03:39:28;;;;;;;9.80;8.07;;;18.60;99.90;;;;;;4996067;28;20744;-83
2022/07/02 03:41:56;;;;;;;8.77;6.50;;;18.60;99.90;;;;;;5002603;28;20398;-84
2022/07/02 03:44:24;;;;;;;9.20;6.95;;;18.70;99.90;;;;;;5005448;28;20407;-83
2022/07/02 03:46:52;;;;;;;9.63;7.10;;;18.60;99.90;;;;;;5009327;28;20495;-83
2022/07/02 03:49:19;;;;;;;10.02;7.38;;;18.50;99.90;;;;;;5010442;28;20817;-83
2022/07/02 03:51:47;;;;;;;10.30;7.43;;;18.50;99.90;;;;;;5009024;28;20399;-83
2022/07/02 03:54:15;;;;;;;9.23;6.68;;;18.50;99.90;;;;;;4997075;28;20925;-83
2022/07/02 03:56:42;;;;;;;10.68;6.93;;;18.50;99.90;;;;;;5010245;28;20419;-84
2022/07/02 03:59:10;;;;;;;8.90;7.88;;;18.50;99.90;;;;;;4998022;28;20811;-83
2022/07/02 04:01:37;;;;;;;9.73;6.77;;;18.50;99.90;;;;;;5000962;28;20825;-82
2022/07/02 04:04:05;;;;;;;9.60;7.80;;;18.50;99.90;;;;;;5001907;28;20973;-83
2022/07/02 04:06:33;;;;;;;8.43;6.70;;;18.50;99.90;;;;;;5005138;28;21053;-83
2022/07/02 04:09:00;;;;;;;8.52;7.10;;;18.50;99.90;;;;;;4996623;28;20400;-83
2022/07/02 04:11:28;;;;;;;13.43;7.00;;;18.50;99.90;;;;;;5006096;28;20394;-83
2022/07/02 04:13:55;;;;;;;11.40;7.75;;;18.50;99.90;;;;;;5000319;28;20902;-83
2022/07/02 04:16:23;;;;;;;10.50;7.60;;;18.50;99.90;;;;;;5001091;28;20463;-83
2022/07/02 04:18:51;;;;;;;10.47;7.60;;;18.50;99.90;;;;;;4995415;28;20406;-83
2022/07/02 04:21:39;;;;;;;11.95;6.63;;;18.50;99.90;;;;;;5001934;28;20393;-84
2022/07/02 04:24:06;;;;;;;9.63;6.47;;;18.50;99.90;;;;;;5001143;28;20466;-83
2022/07/02 04:26:34;;;;;;;8.93;6.07;;;18.50;99.90;;;;;;5001714;28;20461;-83
2022/07/02 04:29:02;;;;;;;8.30;6.68;;;18.60;99.90;;;;;;5002459;28;20476;-83
2022/07/02 04:31:30;;;;;;;10.77;6.88;;;18.60;99.90;;;;;;5002871;28;20436;-84
2022/07/02 04:33:58;;;;;;;8.65;6.70;;;18.50;99.90;;;;;;5008245;28;20461;-84
2022/07/02 04:36:26;;;;;;;7.80;6.00;;;18.50;99.90;;;;;;4997273;28;20435;-83
2022/07/02 04:38:53;;;;;;;10.07;6.50;;;18.60;99.90;;;;;;4996267;28;20459;-83
2022/07/02 04:41:21;;;;;;;10.33;6.23;;;18.60;99.90;;;;;;5005909;28;20408;-84
2022/07/02 04:43:49;;;;;;;8.63;6.90;;;18.60;99.90;;;;;;4999773;28;20791;-83
2022/07/02 04:46:17;;;;;;;9.98;6.85;;;18.70;99.90;;;;;;5007689;28;20455;-82
2022/07/02 04:48:44;;;;;;;8.02;6.30;;;18.60;99.90;;;;;;4994531;28;20898;-84
2022/07/02 04:51:12;;;;;;;9.40;6.60;;;18.70;99.90;;;;;;5000531;28;20408;-83
2022/07/02 04:53:40;;;;;;;6.95;5.80;;;18.80;99.90;;;;;;5008093;28;20511;-83
2022/07/02 04:56:07;;;;;;;8.13;6.43;;;18.80;99.90;;;;;;5009369;28;20417;-83
2022/07/02 04:58:35;;;;;;;10.57;6.53;;;18.90;99.90;;;;;;5007745;28;20482;-84
2022/07/02 05:01:02;;;;;;;9.70;6.50;;;18.90;99.90;;;;;;5001475;28;20431;-84
2022/07/02 05:03:31;;;;;;;9.13;6.25;;;18.90;99.90;;;;;;5003032;28;20405;-83
2022/07/02 05:06:00;;;;;;;17.83;6.72;;;18.90;99.90;;;;;;4998679;28;20398;-83
2022/07/02 05:08:27;;;;;;;12.45;6.10;;;18.90;99.90;;;;;;4998976;28;20391;-83
2022/07/02 05:10:56;;;;;;;45.80;8.27;;;19.10;99.90;;;;;;4996576;28;20780;-84
2022/07/02 05:13:23;;;;;;;11.27;5.90;;;19.10;99.90;;;;;;5006965;28;20996;-83
2022/07/02 05:15:51;;;;;;;9.27;6.13;;;19.20;99.90;;;;;;5006814;28;20644;-84
2022/07/02 05:18:19;;;;;;;9.25;5.80;;;19.20;99.90;;;;;;5007422;28;20385;-83
2022/07/02 05:20:48;;;;;;;7.22;5.68;;;19.20;99.90;;;;;;5003599;28;20879;-83
2022/07/02 05:23:15;;;;;;;8.77;5.97;;;19.30;99.90;;;;;;5007186;28;20397;-84
2022/07/02 05:25:43;;;;;;;27.63;6.93;;;19.40;99.90;;;;;;5004506;28;20452;-83
2022/07/02 05:28:10;;;;;;;10.23;5.75;;;19.50;99.90;;;;;;5004156;28;20400;-83
2022/07/02 05:30:39;;;;;;;12.57;6.87;;;19.50;99.90;;;;;;5001189;28;20399;-83
2022/07/02 05:33:07;;;;;;;9.43;5.88;;;19.60;99.90;;;;;;4999458;28;20407;-83
2022/07/02 05:35:34;;;;;;;11.48;5.88;;;19.60;99.90;;;;;;5008512;28;20774;-83
2022/07/02 05:38:02;;;;;;;9.27;6.43;;;19.70;99.90;;;;;;5008066;28;20385;-83
2022/07/02 05:40:29;;;;;;;9.68;6.00;;;19.80;99.90;;;;;;5004176;28;20411;-83
2022/07/02 05:42:57;;;;;;;8.33;6.20;;;19.80;99.90;;;;;;5008943;28;20473;-84
2022/07/02 05:45:24;;;;;;;10.75;6.45;;;19.90;99.90;;;;;;5007591;28;20465;-83
2022/07/02 05:47:52;;;;;;;9.15;6.22;;;19.90;99.90;;;;;;4999968;28;20399;-83
2022/07/02 05:50:21;;;;;;;9.77;6.32;;;20.10;99.90;;;;;;5006292;28;20413;-83
2022/07/02 05:52:49;;;;;;;8.45;6.75;;;20.00;99.90;;;;;;4997657;28;20492;-83
2022/07/02 05:55:17;;;;;;;9.35;6.68;;;20.00;99.90;;;;;;4996406;28;20417;-83
2022/07/02 05:57:45;;;;;;;11.20;6.70;;;20.10;99.90;;;;;;4998528;28;20433;-84
2022/07/02 06:00:13;;;;;;;11.98;6.30;;;20.20;99.90;;;;;;5005798;28;20739;-83
2022/07/02 06:02:40;;;;;;;13.90;6.70;;;20.30;99.90;;;;;;4997087;28;20772;-83
2022/07/02 06:07:55;;;;;;;11.57;7.07;;;20.30;99.90;;;;;;5000099;28;20404;-82
2022/07/02 06:10:24;;;;;;;11.60;6.57;;;20.40;99.90;;;;;;5000913;28;20409;-83
2022/07/02 06:12:52;;;;;;;12.85;7.13;;;20.50;99.90;;;;;;4995451;28;20396;-82
2022/07/02 06:15:21;;;;;;;11.30;6.40;;;20.60;99.90;;;;;;4999240;28;20871;-83
2022/07/02 06:17:48;;;;;;;9.73;6.53;;;20.50;99.90;;;;;;4998280;28;20409;-83
2022/07/02 06:20:16;;;;;;;11.55;6.75;;;20.50;99.90;;;;;;5001067;28;20445;-83
2022/07/02 06:22:49;;;;;;;10.00;7.00;;;20.60;99.90;;;;;;5007264;28;20410;-83
2022/07/02 06:25:17;;;;;;;12.43;7.05;;;20.70;99.90;;;;;;5000975;28;20919;-82
2022/07/02 06:27:45;;;;;;;10.18;6.53;;;20.90;99.90;;;;;;5008800;28;20929;-83
2022/07/02 06:30:13;;;;;;;9.80;7.05;;;20.90;99.90;;;;;;5002123;28;20899;-83
2022/07/02 06:32:40;;;;;;;9.73;6.70;;;21.00;99.90;;;;;;5009716;28;20933;-82
2022/07/02 06:35:08;;;;;;;10.07;6.37;;;21.10;99.90;;;;;;5003389;28;20902;-83
2022/07/02 06:37:37;;;;;;;15.45;8.27;;;21.20;99.90;;;;;;4998396;28;20403;-85
2022/07/02 06:40:06;;;;;;;21.77;14.98;;;21.40;99.90;;;;;;5000895;28;20401;-84
2022/07/02 06:42:34;;;;;;;15.10;7.77;;;21.40;99.90;;;;;;5010844;28;20392;-84
2022/07/02 06:45:02;;;;;;;17.23;10.35;;;21.40;99.90;;;;;;5004022;28;20756;-85
2022/07/02 06:47:32;;;;;;;15.00;8.73;;;21.50;99.90;;;;;;5000725;28;20395;-84
2022/07/02 06:50:02;;;;;;;11.60;7.22;;;21.50;99.90;;;;;;4996770;28;20951;-83
2022/07/02 06:52:29;;;;;;;10.57;6.80;;;21.70;99.90;;;;;;5004522;28;20801;-83
2022/07/02 06:54:57;;;;;;;10.65;6.65;;;21.70;99.90;;;;;;5008814;28;20891;-84
2022/07/02 06:57:26;;;;;;;10.57;6.37;;;21.80;99.90;;;;;;5011686;28;20491;-84
2022/07/02 06:59:54;;;;;;;9.13;6.55;;;21.90;99.90;;;;;;5001957;28;20387;-83
2022/07/02 07:02:23;;;;;;;8.63;6.30;;;22.00;99.90;;;;;;5003220;28;20395;-84
2022/07/02 07:04:50;;;;;;;11.95;6.75;;;22.10;99.90;;;;;;5008985;28;20493;-84
2022/07/02 07:07:19;;;;;;;10.00;6.05;;;22.30;99.90;;;;;;5004960;28;20739;-85
2022/07/02 07:09:47;;;;;;;9.50;6.20;;;22.30;99.90;;;;;;5003669;28;20766;-85
2022/07/02 07:12:14;;;;;;;14.55;6.40;;;22.50;99.90;;;;;;5000480;28;20405;-84
2022/07/02 07:14:42;;;;;;;8.85;6.03;;;22.60;99.90;;;;;;4986404;28;20416;-84
2022/07/02 07:17:11;;;;;;;11.50;6.22;;;22.60;99.90;;;;;;5006842;28;20413;-84
2022/07/02 07:19:38;;;;;;;11.20;7.05;;;22.60;99.90;;;;;;5001081;28;20903;-84
2022/07/02 07:22:06;;;;;;;10.70;6.32;;;22.70;99.90;;;;;;5007056;28;20628;-84
2022/07/02 07:24:33;;;;;;;9.18;6.18;;;22.80;99.90;;;;;;5002974;28;20406;-84
2022/07/02 07:27:02;;;;;;;10.27;6.38;;;22.80;99.90;;;;;;5012025;28;20940;-83
2022/07/02 07:29:29;;;;;;;11.95;6.65;;;22.80;99.90;;;;;;5009522;28;20884;-84
2022/07/02 07:31:57;;;;;;;9.60;5.80;;;23.20;99.90;;;;;;5002127;28;20443;-85
2022/07/02 07:34:24;;;;;;;9.00;6.10;;;23.20;99.90;;;;;;5004793;28;20766;-84
2022/07/02 07:36:55;;;;;;;12.10;6.57;;;23.30;99.90;;;;;;5004838;28;20398;-84
2022/07/02 07:39:23;;;;;;;9.40;6.25;;;23.40;99.90;;;;;;5008970;28;20412;-84
2022/07/02 07:41:53;;;;;;;8.70;6.38;;;23.50;99.90;;;;;;4997104;28;20899;-84
2022/07/02 07:44:21;;;;;;;8.60;5.75;;;23.60;99.90;;;;;;5004839;28;20415;-84
2022/07/02 07:46:48;;;;;;;12.00;5.82;;;23.70;99.90;;;;;;4995535;28;20425;-84
2022/07/02 07:49:16;;;;;;;8.77;6.05;;;23.60;99.90;;;;;;5012704;28;20470;-85
2022/07/02 07:51:43;;;;;;;10.63;6.28;;;23.80;99.90;;;;;;5009508;28;20406;-85
2022/07/02 07:54:11;;;;;;;7.95;5.75;;;23.70;99.90;;;;;;5008737;28;20503;-84
2022/07/02 07:56:41;;;;;;;13.30;5.68;;;23.80;99.90;;;;;;5001318;28;20419;-85
2022/07/02 07:59:11;;;;;;;12.55;6.00;;;23.90;99.90;;;;;;4998331;28;20463;-84
2022/07/02 08:01:39;;;;;;;6.82;5.57;;;24.00;99.90;;;;;;5008870;28;20408;-86
2022/07/02 08:04:07;;;;;;;8.13;5.75;;;24.10;99.90;;;;;;5001788;28;20764;-87
2022/07/02 08:06:35;;;;;;;7.97;6.20;;;24.10;99.90;;;;;;5010625;28;20425;-85
2022/07/02 08:09:03;;;;;;;7.93;6.10;;;24.10;99.90;;;;;;5002669;28;20408;-86
2022/07/02 08:11:30;;;;;;;8.80;6.00;;;24.10;99.90;;;;;;5009049;28;20407;-86
2022/07/02 08:13:58;;;;;;;8.35;5.70;;;24.00;99.90;;;;;;5010686;28;20424;-87
2022/07/02 08:16:26;;;;;;;11.40;6.10;;;24.20;99.90;;;;;;5008453;28;20408;-86
2022/07/02 08:18:53;;;;;;;6.97;5.88;;;24.30;99.90;;;;;;5005245;28;20410;-86
2022/07/02 08:21:25;;;;;;;8.73;6.05;;;24.20;99.90;;;;;;4993103;28;20965;-85
2022/07/02 08:23:53;;;;;;;9.80;6.07;;;24.20;99.90;;;;;;5006159;28;20401;-86
2022/07/02 08:26:20;;;;;;;7.15;5.90;;;24.40;99.90;;;;;;4998016;28;20416;-86
2022/07/02 08:28:48;;;;;;;7.75;5.40;;;24.60;99.90;;;;;;5000833;28;20903;-86
2022/07/02 08:31:15;;;;;;;6.90;5.43;;;24.50;99.90;;;;;;4990985;28;20411;-88
2022/07/02 08:33:43;;;;;;;8.23;6.00;;;24.40;99.90;;;;;;5004123;28;20397;-86
2022/07/02 08:36:12;;;;;;;7.23;5.73;;;24.40;99.90;;;;;;5002720;28;20421;-86
2022/07/02 08:38:39;;;;;;;6.57;5.57;;;24.30;99.90;;;;;;5003026;28;20415;-86
2022/07/02 08:41:09;;;;;;;8.60;5.78;;;24.40;99.90;;;;;;4995629;28;20451;-86
2022/07/02 08:43:40;;;;;;;7.47;5.65;;;24.40;99.90;;;;;;4997386;28;20496;-86
2022/07/02 08:46:08;;;;;;;9.52;5.65;;;24.60;99.90;;;;;;4997078;28;20408;-85
2022/07/02 08:48:36;;;;;;;8.88;5.60;;;24.60;99.90;;;;;;5008911;28;20498;-84
2022/07/02 08:51:04;;;;;;;7.28;5.40;;;24.70;99.90;;;;;;5001723;28;20409;-86
2022/07/02 08:53:32;;;;;;;7.95;5.57;;;24.70;99.90;;;;;;5002397;28;20878;-86
2022/07/02 08:56:00;;;;;;;7.15;5.82;;;24.70;99.90;;;;;;4996794;28;20415;-86
2022/07/02 08:58:28;;;;;;;11.98;5.47;;;24.80;99.90;;;;;;5002807;28;20409;-85
2022/07/02 09:00:57;;;;;;;6.17;5.57;;;24.90;99.90;;;;;;5000551;28;20455;-87
2022/07/02 09:03:26;;;;;;;6.35;5.75;;;24.90;99.90;;;;;;5008390;28;20385;-85
2022/07/02 09:05:55;;;;;;;6.57;5.50;;;24.90;99.90;;;;;;5007940;28;20461;-85
2022/07/02 09:08:23;;;;;;;7.38;5.93;;;24.90;99.90;;;;;;4995923;28;20398;-85
2022/07/02 09:10:52;;;;;;;11.52;6.45;;;24.90;99.90;;;;;;5002376;28;20987;-85
2022/07/02 09:13:22;;;;;;;11.23;6.13;;;25.00;99.90;;;;;;4997306;28;20406;-85
2022/07/02 09:15:51;;;;;;;9.43;5.78;;;25.10;99.90;;;;;;5006854;28;20780;-86
2022/07/02 09:18:19;;;;;;;8.90;5.70;;;25.20;99.90;;;;;;4988117;28;20393;-87
2022/07/02 09:20:47;;;;;;;8.02;6.07;;;25.20;99.90;;;;;;5003894;28;20790;-86
2022/07/02 09:23:24;;;;;;;7.78;5.75;;;25.20;99.90;;;;;;5006432;28;20916;-84
2022/07/02 09:25:52;;;;;;;7.88;5.63;;;25.30;99.90;;;;;;5017597;28;20926;-86
2022/07/02 09:28:20;;;;;;;7.25;6.10;;;25.40;99.90;;;;;;5003797;28;20427;-86
2022/07/02 09:30:47;;;;;;;8.20;5.97;;;25.30;99.90;;;;;;5010550;28;20610;-87
2022/07/02 09:33:30;;;;;;;8.50;6.43;;;25.60;99.90;;;;;;4998938;28;20403;-87
2022/07/02 09:36:00;;;;;;;7.47;5.85;;;25.60;99.90;;;;;;5005740;28;20941;-87
2022/07/02 09:38:28;;;;;;;7.93;6.20;;;25.50;99.90;;;;;;4999788;28;20402;-88
2022/07/02 09:40:59;;;;;;;9.13;6.20;;;25.40;99.90;;;;;;5002042;28;20407;-86
2022/07/02 09:43:31;;;;;;;9.57;6.40;;;25.60;99.90;;;;;;5005438;28;20834;-86
2022/07/02 09:46:00;;;;;;;8.13;6.10;;;25.80;99.90;;;;;;5001485;28;20416;-87
2022/07/02 09:48:29;;;;;;;7.60;6.25;;;25.70;99.90;;;;;;5001921;28;20927;-84
2022/07/02 09:51:04;;;;;;;8.80;6.88;;;25.50;99.90;;;;;;4988690;28;20462;-84
2022/07/02 09:53:32;;;;;;;8.93;6.22;;;25.60;99.90;;;;;;5007284;28;20496;-83
2022/07/02 09:56:03;;;;;;;8.85;6.63;;;25.90;99.90;;;;;;5004441;28;20404;-84
2022/07/02 09:58:33;;;;;;;10.93;6.28;;;25.90;99.90;;;;;;4999999;28;20395;-84
2022/07/02 10:01:02;;;;;;;12.37;6.83;;;25.90;99.90;;;;;;4996010;28;20409;-83
2022/07/02 10:03:45;;;;;;;10.57;6.60;;;26.00;99.90;;;;;;5002803;28;20415;-83
2022/07/02 10:06:14;;;;;;;7.43;6.72;;;26.00;99.90;;;;;;4996695;28;20413;-85
2022/07/02 10:08:42;;;;;;;7.23;6.53;;;26.10;99.90;;;;;;4990919;28;20399;-85
2022/07/02 10:11:12;;;;;;;12.95;7.32;;;26.20;99.90;;;;;;5002481;28;20407;-85
2022/07/02 10:13:41;;;;;;;14.15;7.18;;;26.30;99.90;;;;;;5000682;28;20471;-83
2022/07/02 10:16:14;;;;;;;10.40;7.20;;;26.50;99.90;;;;;;5002211;28;20487;-85
2022/07/02 10:18:44;;;;;;;7.75;6.85;;;26.50;99.90;;;;;;4983178;28;20397;-85
2022/07/02 10:21:14;;;;;;;8.07;6.95;;;26.40;99.90;;;;;;5009140;28;20946;-86
2022/07/02 10:23:46;;;;;;;7.30;6.60;;;26.40;99.90;;;;;;5015307;28;20990;-84
2022/07/02 10:26:14;;;;;;;9.95;7.05;;;26.70;99.90;;;;;;5009998;28;20415;-86
2022/07/02 10:28:43;;;;;;;7.95;7.15;;;26.60;99.90;;;;;;4999626;28;20403;-86
2022/07/02 10:31:18;;;;;;;8.40;7.60;;;26.60;99.90;;;;;;5003006;28;20437;-86
2022/07/02 10:34:24;;;;;;;8.18;7.38;;;26.60;99.90;;;;;;4999464;28;20406;-86
2022/07/02 10:36:52;;;;;;;9.38;7.28;;;26.60;99.90;;;;;;4969778;28;20473;-85
2022/07/02 10:39:20;;;;;;;11.55;7.32;;;26.70;99.90;;;;;;4964260;28;20426;-85
2022/07/02 10:41:48;;;;;;;11.50;7.65;;;26.60;99.90;;;;;;4990281;28;20407;-86
2022/07/02 10:44:15;;;;;;;21.88;8.02;;;26.50;99.90;;;;;;5000161;28;20467;-85
2022/07/02 10:46:48;;;;;;;9.07;7.13;;;26.80;99.90;;;;;;4995931;28;20509;-85
2022/07/02 10:49:27;;;;;;;10.30;7.13;;;26.90;99.90;;;;;;5002723;28;20393;-85
2022/07/02 10:52:14;;;;;;;9.07;7.43;;;26.90;99.90;;;;;;5000501;28;20483;-85
2022/07/02 10:54:44;;;;;;;7.78;7.05;;;26.90;99.90;;;;;;5005165;28;20407;-85
2022/07/02 10:57:16;;;;;;;9.07;7.57;;;27.10;99.90;;;;;;4999147;28;20453;-84
2022/07/02 10:59:44;;;;;;;9.32;7.60;;;26.90;99.90;;;;;;4995685;28;20409;-85
2022/07/02 11:02:16;;;;;;;10.55;7.43;;;26.70;99.90;;;;;;5008023;28;20412;-85
2022/07/02 11:04:44;;;;;;;8.75;7.47;;;26.70;99.90;;;;;;4999398;28;20425;-86
2022/07/02 11:07:13;;;;;;;9.52;7.32;;;26.90;99.90;;;;;;4997608;28;20872;-85
2022/07/02 11:09:57;;;;;;;8.45;7.57;;;27.10;99.90;;;;;;5003382;28;20502;-85
2022/07/02 11:12:55;;;;;;;10.60;7.50;;;27.30;99.90;;;;;;5001670;28;20420;-85
2022/07/02 11:15:35;;;;;;;8.52;7.68;;;27.30;99.90;;;;;;4999415;28;20901;-85
2022/07/02 11:18:07;;;;;;;9.50;8.13;;;27.20;99.90;;;;;;5004803;28;20408;-85
2022/07/02 11:20:35;;;;;;;8.98;8.05;;;27.30;99.90;;;;;;5003667;28;20419;-85
2022/07/02 11:23:04;;;;;;;8.85;7.93;;;27.40;99.90;;;;;;5010357;28;20931;-85
2022/07/02 11:25:33;;;;;;;9.40;7.85;;;27.20;99.90;;;;;;5007748;28;20420;-85
2022/07/02 11:28:02;;;;;;;8.15;7.32;;;27.40;99.90;;;;;;5007977;28;20406;-86
2022/07/02 11:30:33;;;;;;;9.40;7.90;;;27.50;99.90;;;;;;5003269;28;20893;-86
2022/07/02 11:33:00;;;;;;;9.83;7.60;;;27.60;99.90;;;;;;5002615;28;20428;-85
2022/07/02 11:35:28;;;;;;;10.10;7.88;;;27.60;99.90;;;;;;5006020;28;20426;-85
2022/07/02 11:37:57;;;;;;;8.68;7.82;;;27.70;99.90;;;;;;5001392;28;20391;-84
2022/07/02 11:40:26;;;;;;;9.18;8.27;;;27.80;99.90;;;;;;4994288;28;20396;-86
2022/07/02 11:42:54;;;;;;;8.73;7.53;;;27.90;99.90;;;;;;5002395;28;20404;-85
2022/07/02 11:45:22;;;;;;;9.95;7.80;;;28.00;99.90;;;;;;4999160;28;20406;-85
2022/07/02 11:47:50;;;;;;;9.02;8.13;;;28.00;99.90;;;;;;4995084;28;20389;-85
2022/07/02 11:50:31;;;;;;;9.80;7.53;;;28.00;99.90;;;;;;4999898;28;20474;-85
2022/07/02 11:52:59;;;;;;;8.73;7.45;;;28.10;99.90;;;;;;5000021;28;20400;-85
2022/07/02 11:55:26;;;;;;;8.68;7.30;;;28.20;99.90;;;;;;5003194;28;20432;-85
2022/07/02 11:57:54;;;;;;;7.78;6.95;;;28.20;99.90;;;;;;4998591;28;20492;-86
2022/07/02 12:00:31;;;;;;;8.00;7.20;;;28.10;99.90;;;;;;5002541;28;20407;-85
2022/07/02 12:03:19;;;;;;;9.18;7.28;;;28.20;99.90;;;;;;4997441;28;20480;-85
2022/07/02 12:05:51;;;;;;;8.73;7.93;;;28.20;99.90;;;;;;5003450;28;20470;-85
2022/07/02 12:08:19;;;;;;;8.43;7.57;;;28.30;99.90;;;;;;4996577;28;20402;-84
2022/07/02 12:10:46;;;;;;;11.63;7.88;;;28.30;99.90;;;;;;5007071;28;20410;-85
2022/07/02 12:13:14;;;;;;;10.02;7.43;;;28.10;99.90;;;;;;5001610;28;20432;-85
2022/07/02 12:15:46;;;;;;;8.57;7.75;;;27.80;99.90;;;;;;4995109;28;20408;-85
2022/07/02 12:18:21;;;;;;;8.60;7.60;;;27.90;99.90;;;;;;5000501;28;20442;-85
2022/07/02 12:20:49;;;;;;;8.30;6.90;;;28.00;99.90;;;;;;5005673;28;21386;-85
2022/07/02 12:23:17;;;;;;;8.93;7.43;;;28.10;99.90;;;;;;5005126;28;20448;-85
2022/07/02 12:25:46;;;;;;;8.30;7.50;;;28.30;99.90;;;;;;5002322;28;20414;-85
2022/07/02 12:31:05;;;;;;;9.02;7.72;;;28.50;99.90;;;;;;4999232;28;20407;-85
2022/07/02 12:33:34;;;;;;;9.30;7.40;;;28.30;99.90;;;;;;4999113;28;20408;-84
2022/07/02 12:36:04;;;;;;;18.20;7.97;;;28.40;99.90;;;;;;4995882;28;20406;-84
2022/07/02 12:38:43;;;;;;;12.30;7.93;;;28.30;99.90;;;;;;4996824;28;20404;-85
2022/07/02 12:41:12;;;;;;;11.52;7.97;;;28.40;99.90;;;;;;5002457;28;20407;-83
2022/07/02 12:43:40;;;;;;;9.30;8.40;;;28.50;99.90;;;;;;5010873;28;20457;-84
2022/07/02 12:46:08;;;;;;;10.30;7.65;;;28.60;99.90;;;;;;5001693;28;20419;-84
2022/07/02 12:48:43;;;;;;;8.32;7.38;;;28.60;99.90;;;;;;5001989;28;20396;-84
2022/07/02 12:51:12;;;;;;;8.33;7.53;;;28.50;99.90;;;;;;4995181;28;20399;-83
2022/07/02 12:53:40;;;;;;;8.13;7.32;;;28.20;99.90;;;;;;5001571;28;20385;-84
2022/07/02 12:56:10;;;;;;;8.10;7.30;;;28.00;99.90;;;;;;5003907;28;20392;-84
2022/07/02 12:58:38;;;;;;;8.82;7.68;;;27.80;99.90;;;;;;4998412;28;20454;-85
2022/07/02 13:01:06;;;;;;;8.77;7.40;;;27.80;99.90;;;;;;4997126;28;20484;-84